Time;durP1;ratioP1;P1;durP2;ratioP2;P2;SDS_P1;SDS_P2;PMS_P1;PMS_P2;Temp;Humidity;BMP_temperature;BMP_pressure;BME280_temperature;BME280_humidity;BME280_pressure;Samples;Min_cycle;Max_cycle;Signal;HPM_P1;HPM_P2
2023/06/07 00:00:20;;;;;;;;;;;13.30;99.90;;;;;;5037986;28;20008;-73
2023/06/07 00:02:45;;;;;;;;;;;13.20;99.90;;;;;;5037880;28;19909;-73
2023/06/07 00:05:12;;;;;;;;;;;13.00;99.90;;;;;;5037874;28;19908;-72
2023/06/07 00:07:38;;;;;;;;;;;12.90;99.90;;;;;;5037838;28;19905;-73
2023/06/07 00:10:04;;;;;;;;;;;12.90;99.90;;;;;;5003791;28;20380;-73
2023/06/07 00:12:29;;;;;;;;;;;12.80;99.90;;;;;;5037607;28;19909;-73
2023/06/07 00:14:55;;;;;;;;;;;12.80;99.90;;;;;;5037901;28;20349;-73
2023/06/07 00:17:20;;;;;;;;;;;12.80;99.90;;;;;;5037653;28;19909;-73
2023/06/07 00:19:46;;;;;;;;;;;12.80;99.90;;;;;;5019768;28;19917;-73
2023/06/07 00:22:14;;;;;;;;;;;12.80;99.90;;;;;;5038222;28;19905;-73
2023/06/07 00:24:39;;;;;;;;;;;12.80;99.90;;;;;;5037384;28;19909;-73
2023/06/07 00:27:05;;;;;;;;;;;12.80;99.90;;;;;;5020213;28;19915;-73
2023/06/07 00:29:30;;;;;;;;;;;12.80;99.90;;;;;;5037723;28;19909;-73
2023/06/07 00:31:56;;;;;;;;;;;12.80;99.90;;;;;;5037405;28;19912;-73
2023/06/07 00:34:21;;;;;;;;;;;12.70;99.90;;;;;;5037480;28;20408;-73
2023/06/07 00:36:47;;;;;;;;;;;12.70;99.90;;;;;;5037191;28;19909;-73
2023/06/07 00:39:13;;;;;;;;;;;12.60;99.90;;;;;;5037061;28;20288;-73
2023/06/07 00:41:38;;;;;;;;;;;12.50;99.90;;;;;;5037246;28;19905;-73
2023/06/07 00:44:04;;;;;;;;;;;12.50;99.90;;;;;;5037368;28;19909;-73
2023/06/07 00:46:30;;;;;;;;;;;12.50;99.90;;;;;;5037135;28;19916;-73
2023/06/07 00:48:56;;;;;;;;;;;12.40;99.90;;;;;;5037179;28;19917;-72
2023/06/07 00:51:22;;;;;;;;;;;12.30;99.90;;;;;;5037511;28;20008;-73
2023/06/07 00:53:49;;;;;;;;;;;12.10;99.90;;;;;;5037022;28;20392;-73
2023/06/07 00:56:15;;;;;;;;;;;12.00;99.90;;;;;;5037181;28;19905;-73
2023/06/07 00:58:41;;;;;;;;;;;11.90;99.90;;;;;;5036725;28;20347;-73
2023/06/07 01:01:08;;;;;;;;;;;11.90;99.90;;;;;;5037004;28;19909;-73
2023/06/07 01:03:34;;;;;;;;;;;11.90;99.90;;;;;;5036464;28;19954;-73
2023/06/07 01:06:02;;;;;;;;;;;11.90;99.90;;;;;;5036543;28;19905;-73
2023/06/07 01:08:28;;;;;;;;;;;12.00;99.90;;;;;;5036038;28;19912;-73
2023/06/07 01:10:53;;;;;;;;;;;12.00;99.90;;;;;;5036666;28;20482;-73
2023/06/07 01:13:19;;;;;;;;;;;12.00;99.90;;;;;;5036306;28;19971;-71
2023/06/07 01:15:45;;;;;;;;;;;12.00;99.90;;;;;;5036588;28;19998;-73
2023/06/07 01:18:11;;;;;;;;;;;12.00;99.90;;;;;;5036844;28;19959;-73
2023/06/07 01:20:42;;;;;;;;;;;12.00;99.90;;;;;;5036113;28;19917;-73
2023/06/07 01:23:09;;;;;;;;;;;11.90;99.90;;;;;;5036202;28;19905;-72
2023/06/07 01:25:34;;;;;;;;;;;11.90;99.90;;;;;;5036223;28;19936;-73
2023/06/07 01:28:00;;;;;;;;;;;11.90;99.90;;;;;;5036081;28;19971;-72
2023/06/07 01:30:31;;;;;;;;;;;11.80;99.90;;;;;;5036165;28;19917;-73
2023/06/07 01:32:57;;;;;;;;;;;11.70;99.90;;;;;;5035990;28;20345;-73
2023/06/07 01:35:22;;;;;;;;;;;11.60;99.90;;;;;;5035412;28;19955;-72
2023/06/07 01:37:48;;;;;;;;;;;11.60;99.90;;;;;;5035402;28;19959;-73
2023/06/07 01:40:14;;;;;;;;;;;11.50;99.90;;;;;;5035119;28;19913;-73
2023/06/07 01:42:40;;;;;;;;;;;11.50;99.90;;;;;;5035307;28;19949;-73
2023/06/07 01:45:06;;;;;;;;;;;11.50;99.90;;;;;;5034923;28;19948;-73
2023/06/07 01:47:32;;;;;;;;;;;11.50;99.90;;;;;;5017127;28;19916;-73
2023/06/07 01:49:57;;;;;;;;;;;11.50;99.90;;;;;;5016975;28;19921;-73
2023/06/07 01:52:23;;;;;;;;;;;11.50;99.90;;;;;;5035026;28;19962;-73
2023/06/07 01:54:49;;;;;;;;;;;11.60;99.90;;;;;;5016527;28;19912;-72
2023/06/07 01:57:27;;;;;;;;;;;11.50;99.90;;;;;;5034336;28;24070;-72
2023/06/07 01:59:59;;;;;;;;;;;11.60;99.90;;;;;;5034498;28;19909;-72
2023/06/07 02:02:31;;;;;;;;;;;11.60;99.90;;;;;;5033969;28;24086;-72
2023/06/07 02:05:01;;;;;;;;;;;11.50;99.90;;;;;;5034317;28;19912;-72
2023/06/07 02:07:28;;;;;;;;;;;11.50;99.90;;;;;;5034017;28;24059;-72
2023/06/07 02:09:54;;;;;;;;;;;11.40;99.90;;;;;;5033851;28;19905;-72
2023/06/07 02:12:20;;;;;;;;;;;11.40;99.90;;;;;;5033799;28;19912;-73
2023/06/07 02:14:52;;;;;;;;;;;11.40;99.90;;;;;;5033603;28;19967;-72
2023/06/07 02:17:21;;;;;;;;;;;11.40;99.90;;;;;;5033733;28;19955;-73
2023/06/07 02:19:46;;;;;;;;;;;11.40;99.90;;;;;;5032868;28;19924;-72
2023/06/07 02:22:14;;;;;;;;;;;11.40;99.90;;;;;;5033523;28;19913;-73
2023/06/07 02:24:40;;;;;;;;;;;11.40;99.90;;;;;;5015505;28;24127;-72
2023/06/07 02:27:07;;;;;;;;;;;11.40;99.90;;;;;;5033466;28;19920;-73
2023/06/07 02:29:33;;;;;;;;;;;11.30;99.90;;;;;;5033341;28;19905;-73
2023/06/07 02:32:00;;;;;;;;;;;11.30;99.90;;;;;;5033275;28;20448;-73
2023/06/07 02:34:26;;;;;;;;;;;11.30;99.90;;;;;;5033258;28;20297;-73
2023/06/07 02:36:52;;;;;;;;;;;11.20;99.90;;;;;;5033316;28;20349;-73
2023/06/07 02:39:18;;;;;;;;;;;11.10;99.90;;;;;;5033576;28;19943;-73
2023/06/07 02:41:43;;;;;;;;;;;11.00;99.90;;;;;;5033834;28;19909;-73
2023/06/07 02:44:09;;;;;;;;;;;11.00;99.90;;;;;;5033857;28;19912;-72
2023/06/07 02:46:35;;;;;;;;;;;10.90;99.90;;;;;;5033558;28;19909;-73
2023/06/07 02:49:00;;;;;;;;;;;10.90;99.90;;;;;;5033327;28;20361;-73
2023/06/07 02:51:26;;;;;;;;;;;10.90;99.90;;;;;;5033772;28;24083;-72
2023/06/07 02:53:53;;;;;;;;;;;10.90;99.90;;;;;;5033254;28;24074;-72
2023/06/07 02:56:18;;;;;;;;;;;11.00;99.90;;;;;;5033292;28;19909;-73
2023/06/07 02:58:44;;;;;;;;;;;11.00;99.90;;;;;;5033021;28;19928;-73
2023/06/07 03:01:10;;;;;;;;;;;11.00;99.90;;;;;;5033139;28;20000;-72
2023/06/07 03:03:36;;;;;;;;;;;11.00;99.90;;;;;;5015225;28;19905;-73
2023/06/07 03:06:04;;;;;;;;;;;10.90;99.90;;;;;;5033367;28;19948;-73
2023/06/07 03:08:30;;;;;;;;;;;10.90;99.90;;;;;;5033041;28;19905;-73
2023/06/07 03:10:56;;;;;;;;;;;10.80;99.90;;;;;;5032740;28;20414;-72
2023/06/07 03:13:23;;;;;;;;;;;10.80;99.90;;;;;;5033191;28;19905;-73
2023/06/07 03:15:48;;;;;;;;;;;10.80;99.90;;;;;;5032692;28;20124;-72
2023/06/07 03:18:17;;;;;;;;;;;10.90;99.90;;;;;;5032941;28;20059;-72
2023/06/07 03:20:43;;;;;;;;;;;10.80;99.90;;;;;;5032985;28;20404;-72
2023/06/07 03:23:09;;;;;;;;;;;10.80;99.90;;;;;;5032915;28;20403;-72
2023/06/07 03:25:35;;;;;;;;;;;10.80;99.90;;;;;;5032553;28;19905;-72
2023/06/07 03:28:01;;;;;;;;;;;10.80;99.90;;;;;;5032413;28;20042;-72
2023/06/07 03:30:26;;;;;;;;;;;10.80;99.90;;;;;;5032372;28;20095;-72
2023/06/07 03:32:52;;;;;;;;;;;10.80;99.90;;;;;;5032334;28;20269;-72
2023/06/07 03:35:18;;;;;;;;;;;10.70;99.90;;;;;;5032705;28;19905;-72
2023/06/07 03:37:43;;;;;;;;;;;10.80;99.90;;;;;;5031792;28;20244;-72
2023/06/07 03:40:09;;;;;;;;;;;10.70;99.90;;;;;;5032113;28;19913;-72
2023/06/07 03:42:35;;;;;;;;;;;10.80;99.90;;;;;;5032146;28;20477;-72
2023/06/07 03:45:00;;;;;;;;;;;10.80;99.90;;;;;;5032432;28;19915;-72
2023/06/07 03:47:26;;;;;;;;;;;10.80;99.90;;;;;;5032673;28;20035;-73
2023/06/07 03:49:51;;;;;;;;;;;10.80;99.90;;;;;;5032615;28;20398;-73
2023/06/07 03:52:17;;;;;;;;;;;10.80;99.90;;;;;;5032344;28;20128;-72
2023/06/07 03:54:42;;;;;;;;;;;10.80;99.90;;;;;;5032813;28;20033;-72
2023/06/07 03:57:08;;;;;;;;;;;10.80;99.90;;;;;;5033534;28;19905;-72
2023/06/07 03:59:33;;;;;;;;;;;10.90;99.90;;;;;;5032052;28;20070;-72
2023/06/07 04:02:00;;;;;;;;;;;10.80;99.90;;;;;;5032863;28;20135;-72
2023/06/07 04:04:27;;;;;;;;;;;10.90;99.90;;;;;;5032502;28;19991;-72
2023/06/07 04:06:54;;;;;;;;;;;10.80;99.90;;;;;;5032454;28;20512;-72
2023/06/07 04:09:19;;;;;;;;;;;10.90;99.90;;;;;;5033163;28;20277;-72
2023/06/07 04:11:45;;;;;;;;;;;10.90;99.90;;;;;;5033764;28;19909;-72
2023/06/07 04:14:11;;;;;;;;;;;10.90;99.90;;;;;;5033432;28;20373;-72
2023/06/07 04:16:36;;;;;;;;;;;10.90;99.90;;;;;;5033985;28;20128;-73
2023/06/07 04:19:02;;;;;;;;;;;10.90;99.90;;;;;;5033344;28;19924;-72
2023/06/07 04:21:27;;;;;;;;;;;10.90;99.90;;;;;;5033557;28;20108;-73
2023/06/07 04:23:53;;;;;;;;;;;10.90;99.90;;;;;;5029352;28;20057;-72
2023/06/07 04:26:21;;;;;;;;;;;10.80;99.90;;;;;;5033538;28;20036;-72
2023/06/07 04:28:47;;;;;;;;;;;10.80;99.90;;;;;;5033132;28;20055;-73
2023/06/07 04:31:14;;;;;;;;;;;10.80;99.90;;;;;;5032907;28;20036;-73
2023/06/07 04:33:40;;;;;;;;;;;10.70;99.90;;;;;;5033337;28;20045;-73
2023/06/07 04:36:08;;;;;;;;;;;10.70;99.90;;;;;;5028254;28;20028;-72
2023/06/07 04:38:33;;;;;;;;;;;10.70;99.90;;;;;;5032629;28;20054;-72
2023/06/07 04:41:00;;;;;;;;;;;10.80;99.90;;;;;;5032893;28;19963;-72
2023/06/07 04:43:26;;;;;;;;;;;10.80;99.90;;;;;;5033840;28;20074;-74
2023/06/07 04:45:54;;;;;;;;;;;10.90;99.90;;;;;;5036097;28;20056;-74
2023/06/07 04:48:24;;;;;;;;;;;10.90;99.90;;;;;;5033342;28;20054;-73
2023/06/07 04:51:05;;;;;;;;;;;10.90;99.90;;;;;;5032495;28;20054;-73
2023/06/07 04:53:34;;;;;;;;;;;11.00;99.90;;;;;;5035158;28;20048;-73
2023/06/07 04:55:59;;;;;;;;;;;11.00;99.90;;;;;;5035487;28;20029;-73
2023/06/07 04:58:25;;;;;;;;;;;11.10;99.90;;;;;;5035469;28;20047;-73
2023/06/07 05:00:51;;;;;;;;;;;11.10;99.90;;;;;;5036153;28;20501;-74
2023/06/07 05:03:21;;;;;;;;;;;11.10;99.90;;;;;;5036339;28;20040;-74
2023/06/07 05:05:47;;;;;;;;;;;11.20;99.90;;;;;;5036694;28;20049;-74
2023/06/07 05:08:14;;;;;;;;;;;11.20;99.90;;;;;;5036612;28;20369;-73
2023/06/07 05:10:40;;;;;;;;;;;11.20;99.90;;;;;;5036332;28;20583;-74
2023/06/07 05:13:05;;;;;;;;;;;11.20;99.90;;;;;;5035868;28;20062;-73
2023/06/07 05:15:31;;;;;;;;;;;11.20;99.90;;;;;;5018318;28;20055;-73
2023/06/07 05:17:58;;;;;;;;;;;11.30;99.90;;;;;;5016750;28;20044;-73
2023/06/07 05:20:24;;;;;;;;;;;11.30;99.90;;;;;;5034457;28;20033;-73
2023/06/07 05:22:50;;;;;;;;;;;11.30;99.90;;;;;;5035776;28;20036;-74
2023/06/07 05:25:17;;;;;;;;;;;11.30;99.90;;;;;;5017048;28;20196;-73
2023/06/07 05:27:42;;;;;;;;;;;11.40;99.90;;;;;;5016663;28;20401;-73
2023/06/07 05:30:08;;;;;;;;;;;11.40;99.90;;;;;;5035679;28;20131;-73
2023/06/07 05:32:35;;;;;;;;;;;11.50;99.90;;;;;;5036278;28;20062;-74
2023/06/07 05:35:01;;;;;;;;;;;11.50;99.90;;;;;;5034815;28;20065;-74
2023/06/07 05:37:27;;;;;;;;;;;11.60;99.90;;;;;;5034240;28;20095;-74
2023/06/07 05:39:53;;;;;;;;;;;11.70;99.90;;;;;;5035304;28;20404;-74
2023/06/07 05:42:19;;;;;;;;;;;11.70;99.90;;;;;;5035574;28;20042;-74
2023/06/07 05:44:45;;;;;;;;;;;11.80;99.90;;;;;;5035399;28;20044;-74
2023/06/07 05:47:11;;;;;;;;;;;11.90;99.90;;;;;;5017647;28;20383;-74
2023/06/07 05:49:37;;;;;;;;;;;11.90;99.90;;;;;;5035127;28;20060;-75
2023/06/07 05:52:02;;;;;;;;;;;11.90;99.90;;;;;;5035252;28;20080;-74
2023/06/07 05:54:28;;;;;;;;;;;12.00;99.90;;;;;;5034135;28;20037;-74
2023/06/07 05:56:53;;;;;;;;;;;12.00;99.90;;;;;;5035473;28;20116;-74
2023/06/07 05:59:19;;;;;;;;;;;12.10;99.90;;;;;;5017475;28;20072;-74
2023/06/07 06:01:45;;;;;;;;;;;12.20;99.90;;;;;;5035446;28;20037;-74
2023/06/07 06:04:10;;;;;;;;;;;12.20;99.90;;;;;;5035009;28;20124;-74
2023/06/07 06:06:38;;;;;;;;;;;12.20;99.90;;;;;;5033673;28;20041;-76
2023/06/07 06:09:04;;;;;;;;;;;12.30;99.90;;;;;;5034377;28;20033;-75
2023/06/07 06:11:30;;;;;;;;;;;12.40;99.90;;;;;;5035554;28;20072;-75
2023/06/07 06:13:55;;;;;;;;;;;12.50;99.90;;;;;;5017190;28;20060;-75
2023/06/07 06:16:21;;;;;;;;;;;12.50;99.90;;;;;;5017264;28;20099;-76
2023/06/07 06:18:46;;;;;;;;;;;12.70;99.90;;;;;;5034773;28;20111;-75
2023/06/07 06:21:12;;;;;;;;;;;12.80;99.90;;;;;;5034866;28;20033;-75
2023/06/07 06:23:38;;;;;;;;;;;12.90;99.90;;;;;;5034970;28;20041;-75
2023/06/07 06:26:04;;;;;;;;;;;13.00;99.90;;;;;;5017737;28;20033;-76
2023/06/07 06:28:29;;;;;;;;;;;13.00;99.90;;;;;;5034719;28;20033;-76
2023/06/07 06:30:55;;;;;;;;;;;13.10;99.90;;;;;;5034627;28;20078;-75
2023/06/07 06:33:21;;;;;;;;;;;13.10;99.90;;;;;;5034565;28;20052;-75
2023/06/07 06:35:47;;;;;;;;;;;13.20;99.90;;;;;;5016717;28;20041;-76
2023/06/07 06:38:13;;;;;;;;;;;13.30;99.90;;;;;;5034474;28;20033;-75
2023/06/07 06:40:39;;;;;;;;;;;13.40;99.90;;;;;;5034441;28;20048;-75
2023/06/07 06:43:04;;;;;;;;;;;13.50;99.90;;;;;;5016736;28;20044;-75
2023/06/07 06:45:30;;;;;;;;;;;13.50;99.90;;;;;;5034332;28;20033;-75
2023/06/07 06:47:58;;;;;;;;;;;13.70;99.90;;;;;;5034287;28;20113;-75
2023/06/07 06:50:23;;;;;;;;;;;13.80;99.90;;;;;;5034199;28;20397;-75
2023/06/07 06:52:49;;;;;;;;;;;13.90;99.90;;;;;;5034534;28;20048;-76
2023/06/07 06:55:15;;;;;;;;;;;14.00;99.90;;;;;;5034041;28;20087;-74
2023/06/07 06:57:41;;;;;;;;;;;14.20;99.90;;;;;;5033695;28;20436;-75
2023/06/07 07:00:08;;;;;;;;;;;14.30;99.90;;;;;;5034054;28;20139;-75
2023/06/07 07:02:34;;;;;;;;;;;14.50;99.90;;;;;;5034050;28;20038;-75
2023/06/07 07:05:00;;;;;;;;;;;14.60;99.90;;;;;;5033524;28;20064;-74
2023/06/07 07:07:27;;;;;;;;;;;14.70;99.90;;;;;;5032374;28;20572;-74
2023/06/07 07:09:53;;;;;;;;;;;14.70;99.90;;;;;;5033886;28;20504;-75
2023/06/07 07:12:21;;;;;;;;;;;14.90;99.90;;;;;;5034310;28;20022;-75
2023/06/07 07:14:46;;;;;;;;;;;15.00;99.90;;;;;;5034072;28;20026;-74
2023/06/07 07:17:12;;;;;;;;;;;15.10;99.90;;;;;;5034330;28;20061;-75
2023/06/07 07:19:37;;;;;;;;;;;15.20;99.90;;;;;;5033914;28;20048;-75
2023/06/07 07:22:03;;;;;;;;;;;15.40;99.90;;;;;;5034330;28;20043;-75
2023/06/07 07:24:29;;;;;;;;;;;15.50;99.90;;;;;;5033946;28;20037;-75
2023/06/07 07:26:54;;;;;;;;;;;15.60;99.90;;;;;;5034600;28;20032;-75
2023/06/07 07:29:20;;;;;;;;;;;15.80;99.90;;;;;;5034092;28;20028;-75
2023/06/07 07:31:46;;;;;;;;;;;15.90;99.90;;;;;;5034866;28;20026;-75
2023/06/07 07:34:12;;;;;;;;;;;16.00;99.90;;;;;;5034219;28;20081;-75
2023/06/07 07:36:38;;;;;;;;;;;16.20;99.90;;;;;;5015992;28;20050;-75
2023/06/07 07:39:06;;;;;;;;;;;16.30;99.90;;;;;;5033780;28;20036;-75
2023/06/07 07:41:35;;;;;;;;;;;16.40;99.90;;;;;;5033650;28;20593;-75
2023/06/07 07:44:00;;;;;;;;;;;16.50;99.90;;;;;;5033443;28;20119;-75
2023/06/07 07:46:26;;;;;;;;;;;16.70;99.90;;;;;;5015754;28;20067;-75
2023/06/07 07:48:52;;;;;;;;;;;16.90;99.90;;;;;;5033567;28;20040;-76
2023/06/07 07:51:17;;;;;;;;;;;17.10;99.90;;;;;;5016176;28;20040;-75
2023/06/07 07:53:43;;;;;;;;;;;17.20;99.90;;;;;;5033324;28;20078;-75
2023/06/07 07:56:09;;;;;;;;;;;17.40;99.90;;;;;;5033022;28;20115;-75
2023/06/07 07:58:35;;;;;;;;;;;17.50;99.90;;;;;;5033639;28;20116;-75
2023/06/07 08:01:01;;;;;;;;;;;17.70;99.90;;;;;;5033673;28;20433;-75
2023/06/07 08:03:28;;;;;;;;;;;17.90;99.90;;;;;;5033457;28;20061;-75
2023/06/07 08:05:53;;;;;;;;;;;18.00;99.90;;;;;;5015593;28;20055;-75
2023/06/07 08:08:19;;;;;;;;;;;18.10;99.90;;;;;;5033167;28;20112;-75
2023/06/07 08:10:45;;;;;;;;;;;18.20;99.90;;;;;;5033626;28;20050;-76
2023/06/07 08:13:11;;;;;;;;;;;18.30;99.90;;;;;;5033299;28;20404;-74
2023/06/07 08:15:36;;;;;;;;;;;18.40;99.90;;;;;;5033032;28;20069;-76
2023/06/07 08:18:02;;;;;;;;;;;18.60;99.90;;;;;;5033729;28;20081;-75
2023/06/07 08:20:27;;;;;;;;;;;18.70;99.90;;;;;;5037306;28;20032;-76
2023/06/07 08:22:53;;;;;;;;;;;18.90;99.90;;;;;;5036865;28;20054;-76
2023/06/07 08:25:18;;;;;;;;;;;19.00;99.90;;;;;;5036971;28;20072;-75
2023/06/07 08:27:45;;;;;;;;;;;19.20;99.90;;;;;;5036919;28;20103;-75
2023/06/07 08:30:11;;;;;;;;;;;19.40;99.90;;;;;;5036407;28;20450;-75
2023/06/07 08:32:37;;;;;;;;;;;19.60;99.90;;;;;;5036268;28;20122;-76
2023/06/07 08:35:03;;;;;;;;;;;19.70;99.90;;;;;;5036130;28;20036;-75
2023/06/07 08:37:28;;;;;;;;;;;19.80;99.90;;;;;;5035843;28;20033;-76
2023/06/07 08:39:54;;;;;;;;;;;19.80;99.90;;;;;;5018165;28;20050;-75
2023/06/07 08:42:19;;;;;;;;;;;19.90;99.90;;;;;;5036192;28;20031;-75
2023/06/07 08:44:45;;;;;;;;;;;20.10;99.90;;;;;;5035900;28;19909;-75
2023/06/07 08:47:13;;;;;;;;;;;20.20;99.90;;;;;;5035503;28;20427;-76
2023/06/07 08:49:39;;;;;;;;;;;20.40;99.90;;;;;;5035342;28;19913;-75
2023/06/07 08:52:07;;;;;;;;;;;20.50;99.90;;;;;;5035789;28;19909;-76
2023/06/07 08:54:33;;;;;;;;;;;20.60;99.90;;;;;;5035123;28;19982;-75
2023/06/07 08:56:59;;;;;;;;;;;20.80;99.90;;;;;;5035972;28;19948;-75
2023/06/07 08:59:25;;;;;;;;;;;20.90;98.90;;;;;;5018923;28;19913;-76
2023/06/07 09:01:52;;;;;;;;;;;21.10;97.10;;;;;;5037484;28;20388;-76
2023/06/07 09:04:18;;;;;;;;;;;21.30;96.00;;;;;;5037001;28;20276;-74
2023/06/07 09:06:43;;;;;;;;;;;21.40;94.80;;;;;;5035166;28;19912;-74
2023/06/07 09:09:09;;;;;;;;;;;21.40;93.30;;;;;;5035954;28;19916;-74
2023/06/07 09:11:35;;;;;;;;;;;21.60;92.30;;;;;;5036999;28;19909;-75
2023/06/07 09:14:00;;;;;;;;;;;21.70;91.30;;;;;;5036550;28;19955;-74
2023/06/07 09:16:26;;;;;;;;;;;21.90;90.60;;;;;;5036638;28;19909;-75
2023/06/07 09:18:55;;;;;;;;;;;21.90;86.40;;;;;;5036253;28;19916;-75
2023/06/07 09:21:21;;;;;;;;;;;22.00;81.10;;;;;;5036560;28;19912;-75
2023/06/07 09:23:47;;;;;;;;;;;22.00;84.40;;;;;;5036173;28;19909;-74
2023/06/07 09:26:13;;;;;;;;;;;22.10;85.10;;;;;;5036188;28;19963;-75
2023/06/07 09:28:39;;;;;;;;;;;22.30;86.20;;;;;;5018114;28;19916;-75
2023/06/07 09:31:05;;;;;;;;;;;22.40;84.20;;;;;;5036140;28;19905;-75
2023/06/07 09:33:34;;;;;;;;;;;22.50;79.20;;;;;;5018534;28;19909;-74
2023/06/07 09:36:03;;;;;;;;;;;22.50;78.90;;;;;;5036905;28;19992;-75
2023/06/07 09:38:28;;;;;;;;;;;22.50;76.60;;;;;;5036216;28;19905;-75
2023/06/07 09:40:55;;;;;;;;;;;22.50;74.00;;;;;;5036137;28;19923;-75
2023/06/07 09:43:21;;;;;;;;;;;22.50;74.20;;;;;;5018356;28;19906;-74
2023/06/07 09:45:53;;;;;;;;;;;22.50;75.40;;;;;;5018417;28;19920;-75
2023/06/07 09:48:19;;;;;;;;;;;22.50;76.40;;;;;;5018203;28;19916;-75
2023/06/07 09:50:55;;;;;;;;;;;22.50;77.80;;;;;;5017949;28;19917;-75
2023/06/07 09:53:21;;;;;;;;;;;22.50;74.60;;;;;;5035935;28;19912;-75
2023/06/07 09:55:46;;;;;;;;;;;22.50;74.40;;;;;;5035676;28;20292;-75
2023/06/07 09:58:22;;;;;;;;;;;22.60;77.00;;;;;;5035999;28;19913;-75
2023/06/07 10:00:48;;;;;;;;;;;22.80;73.90;;;;;;5035476;28;19913;-75
2023/06/07 10:03:14;;;;;;;;;;;23.00;72.30;;;;;;5035503;28;20284;-75
2023/06/07 10:05:41;;;;;;;;;;;23.10;73.60;;;;;;5035487;28;19905;-75
2023/06/07 10:08:06;;;;;;;;;;;23.10;75.40;;;;;;5035459;28;19913;-75
2023/06/07 10:10:34;;;;;;;;;;;23.10;71.70;;;;;;5035369;28;20323;-75
2023/06/07 10:13:03;;;;;;;;;;;23.10;72.10;;;;;;5035376;28;19905;-75
2023/06/07 10:15:29;;;;;;;;;;;23.20;72.80;;;;;;5035233;28;19905;-75
2023/06/07 10:17:55;;;;;;;;;;;23.30;71.40;;;;;;5035258;28;19909;-75
2023/06/07 10:20:28;;;;;;;;;;;23.40;70.20;;;;;;5035109;28;19924;-75
2023/06/07 10:22:57;;;;;;;;;;;23.40;70.80;;;;;;5035229;28;19923;-75
2023/06/07 10:25:24;;;;;;;;;;;23.60;72.40;;;;;;5035094;28;19905;-74
2023/06/07 10:27:55;;;;;;;;;;;23.60;71.60;;;;;;5035419;28;19958;-75
2023/06/07 10:30:22;;;;;;;;;;;23.70;69.50;;;;;;5034996;28;19912;-75
2023/06/07 10:32:48;;;;;;;;;;;23.70;67.70;;;;;;5035270;28;19916;-75
2023/06/07 10:35:15;;;;;;;;;;;23.70;68.10;;;;;;5034991;28;19909;-74
2023/06/07 10:37:42;;;;;;;;;;;23.90;68.10;;;;;;5034856;28;19916;-75
2023/06/07 10:40:11;;;;;;;;;;;23.90;69.60;;;;;;5034745;28;19976;-75
2023/06/07 10:42:37;;;;;;;;;;;23.80;68.10;;;;;;5034581;28;19916;-74
2023/06/07 10:45:04;;;;;;;;;;;23.70;66.60;;;;;;5034785;28;19905;-74
2023/06/07 10:47:30;;;;;;;;;;;23.60;70.20;;;;;;5034806;28;19912;-75
2023/06/07 10:49:56;;;;;;;;;;;23.70;66.10;;;;;;5034627;28;19951;-75
2023/06/07 10:52:26;;;;;;;;;;;23.70;66.10;;;;;;5034735;28;19940;-75
2023/06/07 10:54:52;;;;;;;;;;;23.80;68.10;;;;;;5034564;28;19917;-74
2023/06/07 10:57:31;;;;;;;;;;;23.90;69.10;;;;;;5017003;28;19905;-75
2023/06/07 11:00:16;;;;;;;;;;;24.10;68.20;;;;;;5034598;28;19932;-74
2023/06/07 11:02:42;;;;;;;;;;;24.30;67.10;;;;;;5034327;28;20370;-75
2023/06/07 11:05:08;;;;;;;;;;;24.40;65.50;;;;;;5034500;28;19940;-74
2023/06/07 11:07:37;;;;;;;;;;;24.70;67.10;;;;;;5034868;28;20242;-75
2023/06/07 11:10:03;;;;;;;;;;;24.90;65.50;;;;;;5017551;28;19916;-74
2023/06/07 11:12:34;;;;;;;;;;;24.90;63.50;;;;;;5034315;28;19905;-74
2023/06/07 11:15:21;;;;;;;;;;;24.90;63.00;;;;;;5034415;28;19948;-73
2023/06/07 11:17:52;;;;;;;;;;;24.80;63.10;;;;;;5021818;28;19913;-73
2023/06/07 11:20:43;;;;;;;;;;;24.70;64.50;;;;;;5032525;28;19920;-74
2023/06/07 11:23:19;;;;;;;;;;;24.70;61.70;;;;;;5026857;28;19905;-73
2023/06/07 11:25:45;;;;;;;;;;;24.60;61.90;;;;;;5032962;28;19971;-74
2023/06/07 11:28:11;;;;;;;;;;;24.60;65.10;;;;;;5008988;28;20366;-73
2023/06/07 11:30:37;;;;;;;;;;;24.80;65.70;;;;;;5014269;28;19920;-75
2023/06/07 11:33:03;;;;;;;;;;;24.90;63.10;;;;;;5024546;28;20281;-72
2023/06/07 11:35:31;;;;;;;;;;;24.90;61.30;;;;;;5033770;28;19916;-72
2023/06/07 11:38:02;;;;;;;;;;;24.90;61.60;;;;;;5016502;28;19967;-72
2023/06/07 11:40:27;;;;;;;;;;;25.00;60.70;;;;;;5033756;28;19960;-72
2023/06/07 11:42:53;;;;;;;;;;;25.10;63.80;;;;;;5033793;28;19943;-72
2023/06/07 11:45:18;;;;;;;;;;;25.30;62.80;;;;;;5007758;28;19964;-72
2023/06/07 11:47:47;;;;;;;;;;;25.30;61.60;;;;;;5021872;28;19910;-71
2023/06/07 11:50:13;;;;;;;;;;;25.40;62.60;;;;;;5013899;28;20297;-71
2023/06/07 11:52:39;;;;;;;;;;;25.50;64.60;;;;;;5032830;28;19909;-71
2023/06/07 11:55:08;;;;;;;;;;;25.50;59.70;;;;;;5037779;28;20351;-71
2023/06/07 11:57:37;;;;;;;;;;;25.50;60.50;;;;;;5037868;28;19999;-71
2023/06/07 12:00:13;;;;;;;;;;;25.50;59.40;;;;;;5020674;28;19948;-72
2023/06/07 12:02:40;;;;;;;;;;;25.50;58.90;;;;;;5037846;28;19912;-72
2023/06/07 12:05:11;;;;;;;;;;;25.40;59.00;;;;;;5037610;28;19909;-73
2023/06/07 12:07:40;;;;;;;;;;;25.40;57.60;;;;;;5037770;28;19908;-72
2023/06/07 12:10:06;;;;;;;;;;;25.30;63.00;;;;;;5037069;28;19905;-71
2023/06/07 12:12:31;;;;;;;;;;;25.50;61.60;;;;;;5019895;28;19915;-71
2023/06/07 12:15:00;;;;;;;;;;;25.80;59.40;;;;;;5037372;28;20292;-71
2023/06/07 12:17:35;;;;;;;;;;;25.80;58.30;;;;;;5037961;28;19909;-71
2023/06/07 12:20:08;;;;;;;;;;;25.80;60.40;;;;;;5037250;28;19909;-72
2023/06/07 12:22:33;;;;;;;;;;;26.00;58.40;;;;;;5037366;28;19905;-71
2023/06/07 12:25:18;;;;;;;4.50;2.95;;;26.00;57.90;;;;;;5036684;28;19909;-71
2023/06/07 12:27:47;;;;;;;4.57;3.35;;;26.00;58.30;;;;;;5034710;28;20338;-71
2023/06/07 12:30:13;;;;;;;5.05;3.60;;;26.00;57.80;;;;;;5035576;28;20035;-71
2023/06/07 12:32:39;;;;;;;5.93;2.65;;;26.00;57.10;;;;;;5036851;28;20107;-71
2023/06/07 12:35:10;;;;;;;4.38;3.25;;;26.00;57.10;;;;;;5036978;28;20029;-71
2023/06/07 12:37:36;;;;;;;5.55;2.88;;;26.10;58.50;;;;;;5036434;28;20045;-71
2023/06/07 12:40:07;;;;;;;7.07;3.03;;;26.10;58.20;;;;;;5049634;28;20112;-71
2023/06/07 12:42:33;;;;;;;;;;;26.10;56.50;;;;;;5056627;28;20032;-71
2023/06/07 12:44:59;;;;;;;4.80;2.90;;;26.20;57.30;;;;;;5056148;28;19999;-71
2023/06/07 12:47:25;;;;;;;4.43;3.50;;;26.30;57.90;;;;;;5056371;28;20093;-72
2023/06/07 12:49:51;;;;;;;5.07;3.42;;;26.30;57.70;;;;;;5054947;28;20440;-72
2023/06/07 12:52:17;;;;;;;9.48;3.50;;;26.10;55.60;;;;;;5056940;28;20031;-72
2023/06/07 12:54:43;;;;;;;5.68;3.15;;;26.10;56.70;;;;;;5056372;28;20032;-72
2023/06/07 12:57:09;;;;;;;5.57;3.10;;;26.00;57.50;;;;;;5056526;28;20120;-71
2023/06/07 12:59:35;;;;;;;4.18;2.90;;;26.10;56.60;;;;;;5056175;28;20481;-72
2023/06/07 13:02:01;;;;;;;5.68;3.17;;;26.10;58.50;;;;;;5056176;28;20025;-72
2023/06/07 13:04:27;;;;;;;6.32;3.53;;;26.10;56.10;;;;;;5055352;28;20108;-72
2023/06/07 13:06:53;;;;;;;5.07;3.15;;;26.10;58.00;;;;;;5056106;28;20099;-71
2023/06/07 13:09:19;;;;;;;4.28;3.05;;;26.20;55.40;;;;;;5056588;28;20029;-72
2023/06/07 13:11:46;;;;;;;4.72;2.72;;;26.20;59.00;;;;;;5056211;28;20040;-71
2023/06/07 13:14:12;;;;;;;7.15;3.53;;;26.10;58.50;;;;;;5057545;28;20106;-73
2023/06/07 13:16:38;;;;;;;5.15;3.05;;;26.10;59.80;;;;;;5040190;28;20061;-74
2023/06/07 13:19:04;;;;;;;5.63;3.00;;;26.10;57.20;;;;;;5039650;28;20090;-74
2023/06/07 13:21:30;;;;;;;6.68;3.45;;;26.20;60.00;;;;;;5057324;28;20481;-73
2023/06/07 13:23:56;;;;;;;4.63;2.90;;;26.30;57.90;;;;;;5057852;28;20029;-73
2023/06/07 13:26:22;;;;;;;5.60;3.00;;;26.40;59.70;;;;;;5039585;28;20060;-74
2023/06/07 13:28:49;;;;;;;4.75;3.10;;;26.40;59.40;;;;;;5057639;28;20029;-73
2023/06/07 13:31:15;;;;;;;8.18;3.30;;;26.50;59.10;;;;;;5039934;28;20036;-74
2023/06/07 13:33:41;;;;;;;4.53;3.03;;;26.40;59.40;;;;;;5056465;28;20029;-74
2023/06/07 13:36:07;;;;;;;4.07;2.92;;;26.40;59.20;;;;;;5055843;28;20064;-74
2023/06/07 13:38:36;;;;;;;5.03;3.05;;;26.10;58.50;;;;;;5037873;28;20029;-74
2023/06/07 13:41:02;;;;;;;5.72;3.40;;;25.80;58.10;;;;;;5056055;28;20087;-73
2023/06/07 13:43:28;;;;;;;8.18;3.95;;;25.80;60.50;;;;;;5056229;28;20477;-73
2023/06/07 13:45:54;;;;;;;4.75;2.97;;;25.90;58.90;;;;;;5057087;28;20032;-73
2023/06/07 13:48:20;;;;;;;5.57;2.90;;;26.10;59.90;;;;;;5039794;28;20413;-74
2023/06/07 13:50:49;;;;;;;4.10;2.90;;;26.20;60.40;;;;;;5055925;28;20044;-74
2023/06/07 13:53:19;;;;;;;6.00;3.28;;;26.30;59.20;;;;;;5055387;28;20060;-73
2023/06/07 13:55:47;;;;;;;3.93;2.70;;;26.20;58.90;;;;;;5056775;28;20018;-74
2023/06/07 13:58:15;;;;;;;4.60;3.00;;;26.00;59.90;;;;;;5055400;28;20263;-74
2023/06/07 14:00:41;;;;;;;4.82;2.97;;;26.00;59.70;;;;;;5055176;28;20116;-74
2023/06/07 14:03:07;;;;;;;6.05;2.97;;;26.00;61.50;;;;;;5046853;28;20061;-73